createdAt,value
2017-06-24T00:00:25.675Z,72.61
2017-06-24T00:01:25.713Z,72.61
2017-06-24T00:02:25.757Z,72.9
2017-06-24T00:03:25.797Z,72.9
2017-06-24T00:04:25.835Z,72.52
2017-06-24T00:05:25.878Z,72.52
2017-06-24T00:06:25.918Z,72.52
2017-06-24T00:07:25.953Z,72.71
2017-06-24T00:08:26.000Z,72.71
2017-06-24T00:09:26.033Z,72.8
2017-06-24T00:10:26.077Z,73.28
2017-06-24T00:11:26.423Z,73.38
2017-06-24T00:12:26.463Z,73.28
2017-06-24T00:13:26.198Z,72.61
2017-06-24T00:14:26.236Z,73.28
2017-06-24T00:15:26.279Z,73.57
2017-06-24T00:16:26.315Z,73.38
2017-06-24T00:17:26.356Z,73.19
2017-06-24T00:18:26.399Z,73.38
2017-06-24T00:19:26.462Z,73.47
2017-06-24T00:20:26.478Z,73.28
2017-06-24T00:21:26.516Z,73.86
2017-06-24T00:22:26.565Z,73.28
2017-06-24T00:23:26.908Z,73.38
2017-06-24T00:24:26.649Z,73.35
2017-06-24T00:25:26.680Z,73.25
2017-06-24T00:26:26.718Z,73.35
2017-06-24T00:27:26.761Z,73.83
2017-06-24T00:28:27.108Z,73.73
2017-06-24T00:29:26.836Z,73.63
2017-06-24T00:30:26.882Z,73.63
2017-06-24T00:31:26.917Z,73.63
2017-06-24T00:32:26.959Z,74.4
2017-06-24T00:33:26.995Z,73.63
2017-06-24T00:34:27.039Z,74.4
2017-06-24T00:35:27.391Z,74.4
2017-06-24T00:36:27.118Z,74.02
2017-06-24T00:37:27.155Z,74.21
2017-06-24T00:38:27.195Z,74.21
2017-06-24T00:39:27.248Z,74.21
2017-06-24T00:40:27.278Z,74.3
2017-06-24T00:41:27.319Z,74.21
2017-06-24T00:42:27.665Z,74.79
2017-06-24T00:43:27.395Z,74.6
2017-06-24T00:44:27.437Z,74.69
2017-06-24T00:45:27.478Z,74.4
2017-06-24T00:46:27.518Z,74.79
2017-06-24T00:47:27.557Z,74.4
2017-06-24T00:48:27.903Z,74.5
2017-06-24T00:49:27.639Z,74.02
2017-06-24T00:50:27.985Z,74.4
2017-06-24T00:51:28.026Z,74.98
2017-06-24T00:52:27.757Z,74.6
2017-06-24T00:53:27.797Z,74.98
2017-06-24T00:54:28.140Z,74.6
2017-06-24T00:55:27.878Z,74.88
2017-06-24T00:56:27.920Z,74.69
2017-06-24T00:57:28.266Z,75.27
2017-06-24T00:58:27.997Z,74.6
2017-06-24T00:59:28.036Z,74.69
2017-06-24T01:00:28.079Z,74.69
2017-06-24T01:01:28.113Z,74.69
2017-06-24T01:02:28.156Z,74.88
2017-06-24T01:03:28.506Z,75.27
2017-06-24T01:04:28.237Z,75.27
2017-06-24T01:05:28.275Z,75.37
2017-06-24T01:06:28.318Z,74.79
2017-06-24T01:07:28.353Z,74.79
2017-06-24T01:08:28.396Z,74.79
2017-06-24T01:09:28.432Z,75.46
2017-06-24T01:10:28.477Z,74.88
2017-06-24T01:11:28.515Z,74.88
2017-06-24T01:12:28.558Z,74.4
2017-06-24T01:13:28.597Z,74.79
2017-06-24T01:14:28.945Z,74.4
2017-06-24T01:15:28.984Z,74.4
2017-06-24T01:16:28.718Z,74.4
2017-06-24T01:17:28.752Z,74.4
2017-06-24T01:18:28.799Z,74.21
2017-06-24T01:19:28.836Z,74.79
2017-06-24T01:20:28.871Z,74.88
2017-06-24T01:21:28.917Z,74.4
2017-06-24T01:22:28.952Z,74.69
2017-06-24T01:23:28.996Z,74.98
2017-06-24T01:24:29.034Z,74.6
2017-06-24T01:25:29.381Z,74.4
2017-06-24T01:26:29.112Z,74.3
2017-06-24T01:27:29.156Z,74.21
2017-06-24T01:28:29.195Z,74.4
2017-06-24T01:29:29.233Z,74.88
2017-06-24T01:30:29.275Z,75.17
2017-06-24T01:31:29.616Z,75.27
2017-06-24T01:32:29.353Z,74.88
2017-06-24T01:33:29.393Z,74.88
2017-06-24T01:34:29.434Z,74.88
2017-06-24T01:35:29.476Z,74.88
2017-06-24T01:36:29.510Z,75.07
2017-06-24T01:37:29.557Z,75.27
2017-06-24T01:38:29.905Z,74.88
2017-06-24T01:39:29.633Z,75.17
2017-06-24T01:40:29.677Z,74.88
2017-06-24T01:41:29.714Z,75.27
2017-06-24T01:42:29.752Z,74.55
2017-06-24T01:43:29.792Z,75.37
2017-06-24T01:44:29.829Z,75.32
2017-06-24T01:45:29.874Z,75.23
2017-06-24T01:46:29.910Z,74.88
2017-06-24T01:47:29.953Z,74.79
2017-06-24T01:48:29.992Z,74.65
2017-06-24T01:49:30.028Z,74.4
2017-06-24T01:50:30.380Z,74.4
2017-06-24T01:51:30.116Z,74.3
2017-06-24T01:52:30.152Z,74.88
2017-06-24T01:53:30.192Z,74.75
2017-06-24T01:54:30.228Z,74.46
2017-06-24T01:55:30.580Z,74.79
2017-06-24T01:56:30.309Z,74.85
2017-06-24T01:57:30.354Z,74.46
2017-06-24T01:58:30.388Z,74.55
2017-06-24T01:59:30.427Z,74.55
2017-06-24T02:00:30.473Z,74.27
2017-06-24T02:01:30.510Z,74.94
2017-06-24T02:02:30.857Z,74.55
2017-06-24T02:03:30.591Z,74.55
2017-06-24T02:04:30.627Z,74.55
2017-06-24T02:05:30.672Z,74.65
2017-06-24T02:06:30.706Z,74.46
2017-06-24T02:07:30.750Z,74.75
2017-06-24T02:08:31.103Z,74.75
2017-06-24T02:09:30.828Z,74.55
2017-06-24T02:10:30.871Z,74.55
2017-06-24T02:11:30.910Z,74.55
2017-06-24T02:12:30.948Z,74.75
2017-06-24T02:13:30.990Z,74.46
2017-06-24T02:14:31.028Z,74.65
2017-06-24T02:15:31.064Z,74.46
2017-06-24T02:16:31.108Z,74.85
2017-06-24T02:17:31.146Z,74.37
2017-06-24T02:18:31.195Z,74.27
2017-06-24T02:19:31.227Z,74.27
2017-06-24T02:20:31.269Z,74.65
2017-06-24T02:21:31.304Z,74.27
2017-06-24T02:22:31.347Z,74.55
2017-06-24T02:23:31.389Z,74.65
2017-06-24T02:24:31.422Z,74.27
2017-06-24T02:25:31.466Z,74.75
2017-06-24T02:26:31.505Z,74.17
2017-06-24T02:27:31.544Z,74.37
2017-06-24T02:28:31.586Z,74.17
2017-06-24T02:29:31.625Z,74.37
2017-06-24T02:30:31.970Z,74.17
2017-06-24T02:31:31.701Z,74.27
2017-06-24T02:32:31.748Z,73.98
2017-06-24T02:33:32.091Z,74.17
2017-06-24T02:34:31.824Z,74.08
2017-06-24T02:35:31.875Z,74.37
2017-06-24T02:36:31.902Z,73.98
2017-06-24T02:37:31.941Z,74.08
2017-06-24T02:38:31.981Z,74.27
2017-06-24T02:39:32.024Z,74.17
2017-06-24T02:40:32.064Z,74.55
2017-06-24T02:41:32.101Z,74.75
2017-06-24T02:42:32.142Z,74.65
2017-06-24T02:43:32.509Z,74.37
2017-06-24T02:44:32.223Z,74.46
2017-06-24T02:45:32.303Z,74.37
2017-06-24T02:46:32.303Z,74.75
2017-06-24T02:47:32.339Z,74.46
2017-06-24T02:48:32.689Z,74.55
2017-06-24T02:49:32.422Z,74.75
2017-06-24T02:50:32.769Z,74.55
2017-06-24T02:51:32.805Z,74.52
2017-06-24T02:52:32.541Z,74.81
2017-06-24T02:53:32.576Z,74.52
2017-06-24T02:54:32.925Z,74.81
2017-06-24T02:55:32.657Z,74.75
2017-06-24T02:56:32.699Z,74.85
2017-06-24T02:57:32.743Z,74.71
2017-06-24T02:58:32.781Z,74.17
2017-06-24T02:59:32.817Z,75.1
2017-06-24T03:00:32.856Z,75.2
2017-06-24T03:01:32.896Z,74.23
2017-06-24T03:02:32.937Z,75.32
2017-06-24T03:03:32.976Z,74.81
2017-06-24T03:04:33.020Z,74.71
2017-06-24T03:05:33.053Z,74.85
2017-06-24T03:06:33.399Z,74.9
2017-06-24T03:07:33.131Z,75.2
2017-06-24T03:08:33.177Z,74.81
2017-06-24T03:09:33.220Z,75.2
2017-06-24T03:10:33.255Z,75.1
2017-06-24T03:11:33.291Z,75.1
2017-06-24T03:12:33.335Z,75.1
2017-06-24T03:13:33.371Z,74.81
2017-06-24T03:14:33.722Z,75
2017-06-24T03:15:33.453Z,74.81
2017-06-24T03:16:33.801Z,74.94
2017-06-24T03:17:33.758Z,74.9
2017-06-24T03:18:33.879Z,74.9
2017-06-24T03:19:33.611Z,74.9
2017-06-24T03:20:33.655Z,74.85
2017-06-24T03:21:33.999Z,74.71
2017-06-24T03:22:33.732Z,75
2017-06-24T03:23:33.771Z,74.75
2017-06-24T03:24:34.120Z,75.23
2017-06-24T03:25:34.159Z,74.75
2017-06-24T03:26:34.195Z,74.75
2017-06-24T03:27:34.236Z,74.46
2017-06-24T03:28:33.971Z,74.46
2017-06-24T03:29:34.005Z,74.27
2017-06-24T03:30:34.089Z,74.27
2017-06-24T03:31:34.090Z,74.94
2017-06-24T03:32:34.434Z,74.55
2017-06-24T03:33:34.172Z,74.27
2017-06-24T03:34:34.208Z,74.55
2017-06-24T03:35:34.248Z,74.55
2017-06-24T03:36:34.286Z,74.55
2017-06-24T03:37:34.324Z,74.75
2017-06-24T03:38:34.676Z,74.75
2017-06-24T03:39:34.403Z,74.75
2017-06-24T03:40:34.446Z,74.55
2017-06-24T03:41:34.487Z,74.46
2017-06-24T03:42:34.528Z,74.65
2017-06-24T03:43:34.561Z,74.75
2017-06-24T03:44:34.606Z,74.37
2017-06-24T03:45:34.964Z,74.37
2017-06-24T03:46:34.684Z,74.46
2017-06-24T03:47:35.034Z,74.55
2017-06-24T03:48:35.068Z,74.65
2017-06-24T03:49:34.803Z,74.65
2017-06-24T03:50:34.845Z,74.08
2017-06-24T03:51:34.882Z,74.17
2017-06-24T03:52:34.925Z,74.27
2017-06-24T03:53:34.962Z,73.98
2017-06-24T03:54:35.005Z,73.98
2017-06-24T03:55:35.041Z,74.02
2017-06-24T03:56:35.395Z,74.02
2017-06-24T03:57:35.125Z,74.3
2017-06-24T03:58:35.162Z,75.07
2017-06-24T03:59:35.537Z,75.27
2017-06-24T04:00:35.243Z,75.59
2017-06-24T04:01:35.287Z,75.98
2017-06-24T04:02:35.326Z,75.82
2017-06-24T04:03:35.365Z,74.32
2017-06-24T04:04:35.731Z,73.88
2017-06-24T04:05:35.754Z,73.39
2017-06-24T04:06:35.485Z,73.53
2017-06-24T04:07:35.530Z,72.89
2017-06-24T04:08:35.567Z,71.48
2017-06-24T04:09:35.914Z,70.45
2017-06-24T04:10:35.647Z,69.52
2017-06-24T04:11:35.692Z,68.3
2017-06-24T04:12:35.731Z,67.62
2017-06-24T04:13:35.773Z,66.01
2017-06-24T04:14:36.131Z,65.34
2017-06-24T04:15:35.866Z,65.3
2017-06-24T04:16:35.903Z,65.5
2017-06-24T04:17:35.942Z,65.47
2017-06-24T04:18:35.985Z,65.91
2017-06-24T04:19:36.022Z,65.63
2017-06-24T04:20:36.072Z,65.69
2017-06-24T04:21:36.111Z,66.27
2017-06-24T04:22:36.149Z,66.24
2017-06-24T04:23:36.189Z,66.62
2017-06-24T04:24:36.232Z,66.52
2017-06-24T04:25:36.273Z,66.39
2017-06-24T04:26:36.314Z,66.39
2017-06-24T04:27:36.357Z,66.3
2017-06-24T04:28:36.704Z,66.2
2017-06-24T04:29:36.749Z,66.2
2017-06-24T04:30:36.784Z,66.2
2017-06-24T04:31:36.523Z,66.49
2017-06-24T04:32:36.563Z,66.17
2017-06-24T04:33:36.606Z,67.13
2017-06-24T04:34:36.643Z,68.04
2017-06-24T04:35:36.997Z,68.13
2017-06-24T04:36:36.727Z,67.62
2017-06-24T04:37:36.770Z,66.69
2017-06-24T04:38:36.815Z,66.53
2017-06-24T04:39:36.852Z,65.5
2017-06-24T04:40:37.201Z,64.53
2017-06-24T04:41:37.288Z,63.4
2017-06-24T04:42:36.977Z,62.56
2017-06-24T04:43:37.018Z,62.47
2017-06-24T04:44:37.066Z,61.69
2017-06-24T04:45:37.104Z,61.53
2017-06-24T04:46:37.146Z,61.53
2017-06-24T04:47:37.189Z,62.11
2017-06-24T04:48:37.232Z,61.76
2017-06-24T04:49:37.272Z,60.91
2017-06-24T04:50:37.320Z,60.1
2017-06-24T04:51:37.361Z,59.45
2017-06-24T04:52:37.406Z,57.93
2017-06-24T04:53:37.445Z,56.7
2017-06-24T04:54:37.797Z,55.75
2017-06-24T04:55:37.536Z,54.66
2017-06-24T04:56:37.576Z,54.07
2017-06-24T04:57:37.930Z,54.14
2017-06-24T04:58:37.974Z,54.11
2017-06-24T04:59:37.704Z,54.67
2017-06-24T05:00:37.753Z,54.84
2017-06-24T05:01:37.794Z,55.2
2017-06-24T05:02:37.839Z,55.68
2017-06-24T05:03:37.882Z,55.66
2017-06-24T05:04:37.924Z,55.56
2017-06-24T05:05:37.967Z,55.94
2017-06-24T05:06:38.008Z,56.43
2017-06-24T05:07:38.055Z,56.07
2017-06-24T05:08:38.098Z,55.42
2017-06-24T05:09:38.142Z,55.26
2017-06-24T05:10:38.185Z,54.02
2017-06-24T05:11:38.225Z,53.24
2017-06-24T05:12:38.581Z,53.05
2017-06-24T05:13:38.310Z,52.66
2017-06-24T05:14:38.358Z,52.93
2017-06-24T05:15:38.709Z,52.73
2017-06-24T05:16:38.446Z,52.51
2017-06-24T05:17:38.489Z,52.9
2017-06-24T05:18:38.530Z,53.17
2017-06-24T05:19:38.573Z,53.75
2017-06-24T05:20:38.619Z,53.23
2017-06-24T05:21:38.656Z,53.81
2017-06-24T05:22:39.006Z,54.01
2017-06-24T05:23:38.748Z,53.91
2017-06-24T05:24:38.790Z,53.99
2017-06-24T05:25:38.830Z,54.37
2017-06-24T05:26:38.872Z,54.85
2017-06-24T05:27:38.920Z,54.57
2017-06-24T05:28:38.961Z,54.63
2017-06-24T05:29:39.005Z,55.05
2017-06-24T05:30:39.049Z,55.6
2017-06-24T05:31:39.088Z,55.24
2017-06-24T05:32:39.133Z,55.53
2017-06-24T05:33:39.176Z,55.05
2017-06-24T05:34:39.520Z,55.24
2017-06-24T05:35:39.262Z,55.24
2017-06-24T05:36:39.301Z,55.43
2017-06-24T05:37:39.343Z,55.53
2017-06-24T05:38:39.393Z,55.15
2017-06-24T05:39:39.430Z,55.24
2017-06-24T05:40:39.476Z,55.05
2017-06-24T05:41:39.517Z,55.24
2017-06-24T05:42:39.883Z,55.34
2017-06-24T05:43:39.913Z,55.36
2017-06-24T05:44:39.648Z,55.56
2017-06-24T05:45:39.693Z,55.88
2017-06-24T05:46:39.744Z,56
2017-06-24T05:47:39.780Z,56.41
2017-06-24T05:48:39.823Z,55.21
2017-06-24T05:49:39.865Z,54
2017-06-24T05:50:39.914Z,52.5
2017-06-24T05:51:40.269Z,51.21
2017-06-24T05:52:40.011Z,50.16
2017-06-24T05:53:40.052Z,49.44
2017-06-24T05:54:40.097Z,48
2017-06-24T05:55:40.142Z,46.58
2017-06-24T05:56:40.504Z,45.9
2017-06-24T05:57:40.239Z,44.65
2017-06-24T05:58:40.283Z,44.48
2017-06-24T05:59:40.644Z,42.93
2017-06-24T06:00:40.381Z,42.74
2017-06-24T06:01:40.430Z,42.46
2017-06-24T06:02:40.478Z,41.6
2017-06-24T06:03:40.523Z,41.11
2017-06-24T06:04:40.577Z,40.25
2017-06-24T06:05:40.928Z,39.98
2017-06-24T06:06:40.702Z,39.41
2017-06-24T06:07:40.719Z,38.43
2017-06-24T06:08:40.773Z,37.76
2017-06-24T06:09:40.819Z,37.07
2017-06-24T06:10:40.870Z,36.68
2017-06-24T06:11:40.917Z,36.4
2017-06-24T06:12:40.970Z,36.11
2017-06-24T06:13:41.023Z,35.33
2017-06-24T06:14:41.071Z,35.03
2017-06-24T06:15:41.121Z,34.64
2017-06-24T06:16:41.171Z,34.44
2017-06-24T06:17:41.222Z,34.15
2017-06-24T06:18:41.276Z,34.16
2017-06-24T06:19:41.324Z,33.48
2017-06-24T06:20:41.384Z,33.28
2017-06-24T06:21:41.426Z,32.71
2017-06-24T06:22:41.478Z,32.61
2017-06-24T06:23:41.528Z,32.21
2017-06-24T06:24:41.577Z,31.84
2017-06-24T06:25:41.635Z,31.05
2017-06-24T06:26:41.686Z,31.15
2017-06-24T06:27:41.736Z,30.95
2017-06-24T06:28:41.785Z,30.77
2017-06-24T06:29:41.839Z,30.98
2017-06-24T06:30:41.893Z,29.92
2017-06-24T06:31:41.945Z,29.82
2017-06-24T06:32:41.993Z,29.34
2017-06-24T06:33:42.049Z,28.96
2017-06-24T06:34:42.102Z,28.66
2017-06-24T06:35:42.161Z,28.78
2017-06-24T06:36:42.211Z,27.69
2017-06-24T06:37:42.256Z,27.7
2017-06-24T06:38:42.313Z,27.51
2017-06-24T06:39:42.393Z,26.83
2017-06-24T06:40:42.422Z,26.54
2017-06-24T06:41:42.472Z,26.43
2017-06-24T06:42:42.527Z,26.64
2017-06-24T06:43:42.583Z,26.04
2017-06-24T06:44:42.635Z,25.84
2017-06-24T06:45:42.694Z,25.76
2017-06-24T06:46:42.741Z,26.06
2017-06-24T06:47:42.798Z,25.28
2017-06-24T06:48:42.859Z,24.9
2017-06-24T06:49:42.908Z,24.61
2017-06-24T06:50:42.964Z,23.92
2017-06-24T06:51:43.017Z,24.2
2017-06-24T06:52:43.071Z,24.88
2017-06-24T06:53:43.126Z,24.5
2017-06-24T06:54:43.188Z,23.82
2017-06-24T06:55:43.236Z,24.32
2017-06-24T06:56:43.294Z,23.44
2017-06-24T06:57:43.343Z,23.16
2017-06-24T06:58:43.400Z,22.67
2017-06-24T06:59:43.458Z,22.86
2017-06-24T07:00:43.510Z,22.67
2017-06-24T07:01:43.570Z,22.47
2017-06-24T07:02:43.623Z,22.66
2017-06-24T07:03:43.681Z,22.07
2017-06-24T07:04:43.736Z,22.07
2017-06-24T07:05:43.791Z,22.17
2017-06-24T07:06:43.847Z,21.78
2017-06-24T07:07:43.902Z,21.67
2017-06-24T07:08:43.958Z,21.77
2017-06-24T07:09:44.020Z,22.15
2017-06-24T07:10:44.070Z,21.95
2017-06-24T07:11:44.122Z,22.05
2017-06-24T07:12:44.179Z,22.15
2017-06-24T07:13:44.236Z,21.75
2017-06-24T07:14:44.288Z,22.06
2017-06-24T07:15:44.345Z,21.96
2017-06-24T07:16:44.426Z,21.47
2017-06-24T07:17:44.459Z,21.78
2017-06-24T07:18:44.514Z,20.98
2017-06-24T07:19:44.571Z,20.59
2017-06-24T07:20:44.622Z,21.28
2017-06-24T07:21:44.683Z,20.89
2017-06-24T07:22:44.735Z,20.89
2017-06-24T07:23:44.794Z,20.7
2017-06-24T07:24:44.851Z,20.9
2017-06-24T07:25:44.905Z,20.32
2017-06-24T07:26:44.962Z,20.63
2017-06-24T07:27:45.018Z,20.25
2017-06-24T07:28:45.080Z,20.26
2017-06-24T07:29:45.142Z,19.77
2017-06-24T07:30:45.191Z,19.08
2017-06-24T07:31:45.249Z,19.09
2017-06-24T07:32:45.306Z,18.88
2017-06-24T07:33:45.672Z,18.2
2017-06-24T07:34:45.422Z,18.5
2017-06-24T07:35:45.479Z,18.4
2017-06-24T07:36:45.537Z,17.99
2017-06-24T07:37:45.592Z,17.99
2017-06-24T07:38:45.658Z,18.38
2017-06-24T07:39:45.713Z,18.07
2017-06-24T07:40:45.769Z,18.47
2017-06-24T07:41:45.826Z,18.77
2017-06-24T07:42:45.886Z,17.98
2017-06-24T07:43:45.954Z,18.28
2017-06-24T07:44:46.001Z,17.99
2017-06-24T07:45:46.058Z,17.6
2017-06-24T07:46:46.119Z,17.4
2017-06-24T07:47:46.180Z,17.49
2017-06-24T07:48:46.238Z,17.39
2017-06-24T07:49:46.291Z,17.39
2017-06-24T07:50:46.369Z,17.6
2017-06-24T07:51:46.417Z,17.3
2017-06-24T07:52:46.468Z,17.2
2017-06-24T07:53:46.552Z,17.3
2017-06-24T07:54:46.588Z,17.1
2017-06-24T07:55:46.646Z,17.09
2017-06-24T07:56:46.704Z,17.09
2017-06-24T07:57:46.759Z,17.09
2017-06-24T07:58:46.823Z,17.09
2017-06-24T07:59:46.884Z,17.19
2017-06-24T08:00:46.940Z,16.99
2017-06-24T08:01:46.997Z,16.89
2017-06-24T08:02:47.059Z,16.99
2017-06-24T08:03:47.114Z,17.39
2017-06-24T08:04:47.175Z,16.69
2017-06-24T08:05:47.540Z,16.69
2017-06-24T08:06:47.293Z,16.88
2017-06-24T08:07:47.350Z,16.58
2017-06-24T08:08:47.719Z,16.88
2017-06-24T08:09:47.773Z,17.07
2017-06-24T08:10:47.528Z,17.07
2017-06-24T08:11:47.584Z,17.55
2017-06-24T08:12:47.950Z,16.86
2017-06-24T08:13:48.010Z,17.17
2017-06-24T08:14:47.760Z,16.28
2017-06-24T08:15:48.126Z,16.58
2017-06-24T08:16:48.184Z,16.97
2017-06-24T08:17:47.938Z,16.37
2017-06-24T08:18:47.995Z,16.47
2017-06-24T08:19:48.052Z,16.27
2017-06-24T08:20:48.115Z,16.27
2017-06-24T08:21:48.175Z,16.16
2017-06-24T08:22:48.232Z,16.76
2017-06-24T08:23:48.297Z,16.27
2017-06-24T08:24:48.659Z,15.97
2017-06-24T08:25:48.407Z,15.87
2017-06-24T08:26:48.467Z,16.25
2017-06-24T08:27:48.523Z,16.16
2017-06-24T08:28:48.586Z,16.06
2017-06-24T08:29:48.641Z,16.16
2017-06-24T08:30:48.698Z,16.17
2017-06-24T08:31:49.070Z,16.37
2017-06-24T08:32:48.821Z,15.99
2017-06-24T08:33:48.874Z,16
2017-06-24T08:34:48.939Z,15.7
2017-06-24T08:35:49.305Z,14.91
2017-06-24T08:36:49.051Z,15.31
2017-06-24T08:37:49.441Z,15.01
2017-06-24T08:38:49.174Z,14.61
2017-06-24T08:39:49.233Z,14.9
2017-06-24T08:40:49.597Z,15
2017-06-24T08:41:49.347Z,15.39
2017-06-24T08:42:49.717Z,14.89
2017-06-24T08:43:49.468Z,15.28
2017-06-24T08:44:49.525Z,15.57
2017-06-24T08:45:49.895Z,15.56
2017-06-24T08:46:49.643Z,16.15
2017-06-24T08:47:49.705Z,16.15
2017-06-24T08:48:49.761Z,16.25
2017-06-24T08:49:49.822Z,16.05
2017-06-24T08:50:49.882Z,15.95
2017-06-24T08:51:49.942Z,15.94
2017-06-24T08:52:49.998Z,16.23
2017-06-24T08:53:50.057Z,16.52
2017-06-24T08:54:50.116Z,17.11
2017-06-24T08:55:50.180Z,16.81
2017-06-24T08:56:50.238Z,16.9
2017-06-24T08:57:50.290Z,17.49
2017-06-24T08:58:50.354Z,17.69
2017-06-24T08:59:50.415Z,18.29
2017-06-24T09:00:50.473Z,18.18
2017-06-24T09:01:50.529Z,17.89
2017-06-24T09:02:50.588Z,17.69
2017-06-24T09:03:50.645Z,17.78
2017-06-24T09:04:51.014Z,18.07
2017-06-24T09:05:50.765Z,18.17
2017-06-24T09:06:51.130Z,17.87
2017-06-24T09:07:50.888Z,18.27
2017-06-24T09:08:50.937Z,18.16
2017-06-24T09:09:50.997Z,18.35
2017-06-24T09:10:51.058Z,18.35
2017-06-24T09:11:51.116Z,18.54
2017-06-24T09:12:51.173Z,18.74
2017-06-24T09:13:51.234Z,18.44
2017-06-24T09:14:51.604Z,19.13
2017-06-24T09:15:51.351Z,19.02
2017-06-24T09:16:51.409Z,18.82
2017-06-24T09:17:51.775Z,19.5
2017-06-24T09:18:51.543Z,19.4
2017-06-24T09:19:51.585Z,19.8
2017-06-24T09:20:51.645Z,19.79
2017-06-24T09:21:51.700Z,20.09
2017-06-24T09:22:51.763Z,20
2017-06-24T09:23:52.128Z,19.8
2017-06-24T09:24:51.879Z,19.9
2017-06-24T09:25:51.935Z,20.09
2017-06-24T09:26:51.997Z,19.8
2017-06-24T09:27:52.362Z,20.2
2017-06-24T09:28:52.118Z,20.3
2017-06-24T09:29:52.170Z,20.3
2017-06-24T09:30:52.230Z,20.41
2017-06-24T09:31:52.283Z,20.22
2017-06-24T09:32:52.345Z,20.22
2017-06-24T09:33:52.409Z,19.93
2017-06-24T09:34:52.468Z,19.13
2017-06-24T09:35:52.524Z,19.62
2017-06-24T09:36:52.583Z,19.92
2017-06-24T09:37:52.642Z,19.9
2017-06-24T09:38:52.700Z,19.81
2017-06-24T09:39:52.755Z,20.09
2017-06-24T09:40:52.816Z,19.69
2017-06-24T09:41:53.185Z,20.28
2017-06-24T09:42:52.931Z,20.37
2017-06-24T09:43:52.990Z,20.46
2017-06-24T09:44:53.052Z,20.46
2017-06-24T09:45:53.107Z,20.75
2017-06-24T09:46:53.168Z,20.75
2017-06-24T09:47:53.225Z,20.95
2017-06-24T09:48:53.289Z,21.25
2017-06-24T09:49:53.654Z,20.75
2017-06-24T09:50:53.404Z,20.95
2017-06-24T09:51:53.463Z,20.75
2017-06-24T09:52:53.520Z,20.84
2017-06-24T09:53:53.576Z,21.14
2017-06-24T09:54:53.639Z,20.84
2017-06-24T09:55:53.698Z,21.14
2017-06-24T09:56:53.756Z,20.54
2017-06-24T09:57:53.814Z,20.93
2017-06-24T09:58:53.875Z,21.51
2017-06-24T09:59:53.930Z,21.8
2017-06-24T10:00:53.993Z,21.59
2017-06-24T10:01:54.050Z,21.98
2017-06-24T10:02:54.111Z,21.88
2017-06-24T10:03:54.168Z,21.78
2017-06-24T10:04:54.226Z,22.08
2017-06-24T10:05:54.592Z,22.86
2017-06-24T10:06:54.347Z,22.08
2017-06-24T10:07:54.404Z,22.19
2017-06-24T10:08:54.460Z,22.17
2017-06-24T10:09:54.828Z,21.98
2017-06-24T10:10:54.578Z,21.98
2017-06-24T10:11:54.634Z,22.27
2017-06-24T10:12:54.698Z,22.06
2017-06-24T10:13:54.757Z,21.97
2017-06-24T10:14:54.813Z,22.36
2017-06-24T10:15:54.873Z,22.46
2017-06-24T10:16:55.237Z,22.26
2017-06-24T10:17:55.299Z,22.06
2017-06-24T10:18:55.353Z,22.46
2017-06-24T10:19:55.419Z,22.95
2017-06-24T10:20:55.169Z,22.94
2017-06-24T10:21:55.222Z,23.05
2017-06-24T10:22:55.285Z,22.95
2017-06-24T10:23:55.343Z,22.94
2017-06-24T10:24:55.706Z,23.53
2017-06-24T10:25:55.461Z,22.92
2017-06-24T10:26:55.526Z,23.22
2017-06-24T10:27:55.575Z,23.42
2017-06-24T10:28:55.637Z,23.81
2017-06-24T10:29:55.697Z,23.7
2017-06-24T10:30:55.752Z,23.8
2017-06-24T10:31:55.813Z,23.9
2017-06-24T10:32:56.180Z,24.37
2017-06-24T10:33:56.153Z,24.75
2017-06-24T10:34:55.988Z,24.93
2017-06-24T10:35:56.048Z,25.04
2017-06-24T10:36:56.105Z,25.33
2017-06-24T10:37:56.161Z,25.12
2017-06-24T10:38:56.228Z,25.51
2017-06-24T10:39:56.281Z,25.71
2017-06-24T10:40:56.340Z,25.42
2017-06-24T10:41:56.399Z,25.71
2017-06-24T10:42:56.769Z,25.81
2017-06-24T10:43:56.823Z,26.18
2017-06-24T10:44:56.882Z,26.09
2017-06-24T10:45:56.632Z,26.48
2017-06-24T10:46:56.699Z,26.66
2017-06-24T10:47:56.751Z,26.37
2017-06-24T10:48:56.807Z,26.37
2017-06-24T10:49:56.870Z,27.15
2017-06-24T10:50:56.923Z,27.44
2017-06-24T10:51:56.986Z,27.15
2017-06-24T10:52:57.041Z,27.62
2017-06-24T10:53:57.410Z,27.72
2017-06-24T10:54:57.159Z,27.81
2017-06-24T10:55:57.214Z,27.61
2017-06-24T10:56:57.275Z,28.39
2017-06-24T10:57:57.331Z,28.39
2017-06-24T10:58:57.385Z,28.49
2017-06-24T10:59:57.446Z,28.29
2017-06-24T11:00:57.808Z,28.58
2017-06-24T11:01:57.559Z,28.77
2017-06-24T11:02:57.612Z,28.67
2017-06-24T11:03:57.672Z,28.86
2017-06-24T11:04:57.725Z,28.97
2017-06-24T11:05:57.778Z,29.46
2017-06-24T11:06:58.144Z,29.85
2017-06-24T11:07:57.888Z,29.36
2017-06-24T11:08:57.940Z,29.95
2017-06-24T11:09:57.994Z,29.66
2017-06-24T11:10:58.046Z,29.36
2017-06-24T11:11:58.101Z,29.36
2017-06-24T11:12:58.154Z,29.36
2017-06-24T11:13:58.517Z,29.66
2017-06-24T11:14:58.256Z,29.93
2017-06-24T11:15:58.312Z,29.36
2017-06-24T11:16:58.363Z,29.44
2017-06-24T11:17:58.412Z,29.64
2017-06-24T11:18:58.459Z,30.22
2017-06-24T11:19:58.512Z,30.32
2017-06-24T11:20:58.566Z,30.52
2017-06-24T11:21:58.614Z,30.42
2017-06-24T11:22:58.674Z,30.13
2017-06-24T11:23:58.709Z,30.21
2017-06-24T11:24:58.763Z,30.41
2017-06-24T11:25:59.116Z,30.6
2017-06-24T11:26:59.164Z,30.7
2017-06-24T11:27:58.908Z,30.88
2017-06-24T11:28:58.958Z,30.58
2017-06-24T11:29:59.006Z,31.07
2017-06-24T11:30:59.052Z,30.98
2017-06-24T11:31:59.107Z,30.88
2017-06-24T11:32:59.151Z,31.07
2017-06-24T11:33:59.202Z,31.17
2017-06-24T11:34:59.249Z,31.07
2017-06-24T11:35:59.297Z,31.07
2017-06-24T11:36:59.350Z,31.16
2017-06-24T11:37:59.390Z,31.06
2017-06-24T11:38:59.442Z,30.87
2017-06-24T11:39:59.487Z,30.87
2017-06-24T11:40:59.840Z,30.87
2017-06-24T11:41:59.583Z,31.14
2017-06-24T11:42:59.630Z,31.16
2017-06-24T11:43:59.713Z,31.45
2017-06-24T11:44:59.728Z,31.45
2017-06-24T11:45:59.772Z,31.54
2017-06-24T11:46:59.821Z,31.64
2017-06-24T11:47:59.867Z,31.93
2017-06-24T11:49:00.222Z,32.02
2017-06-24T11:49:59.962Z,31.74
2017-06-24T11:51:00.005Z,32.13
2017-06-24T11:52:00.058Z,32.13
2017-06-24T11:53:00.099Z,32.52
2017-06-24T11:54:00.151Z,32.52
2017-06-24T11:55:00.197Z,32.42
2017-06-24T11:56:00.243Z,32.32
2017-06-24T11:57:00.291Z,32.52
2017-06-24T11:58:00.337Z,32.71
2017-06-24T11:59:00.384Z,32.52
2017-06-24T12:00:00.435Z,32.81
2017-06-24T12:01:00.479Z,32.53
2017-06-24T12:02:00.527Z,32.15
2017-06-24T12:03:00.573Z,31.93
2017-06-24T12:04:00.921Z,31.84
2017-06-24T12:05:00.666Z,31.93
2017-06-24T12:06:00.712Z,32.03
2017-06-24T12:07:00.763Z,32.13
2017-06-24T12:08:00.804Z,32.13
2017-06-24T12:09:00.855Z,32.23
2017-06-24T12:10:01.210Z,32.03
2017-06-24T12:11:00.952Z,32.13
2017-06-24T12:12:00.995Z,32.13
2017-06-24T12:13:01.040Z,31.92
2017-06-24T12:14:01.087Z,32.02
2017-06-24T12:15:01.136Z,31.92
2017-06-24T12:16:01.490Z,32.02
2017-06-24T12:17:01.227Z,32.02
2017-06-24T12:18:01.276Z,32.02
2017-06-24T12:19:01.632Z,32.11
2017-06-24T12:20:01.365Z,32.31
2017-06-24T12:21:01.415Z,32.21
2017-06-24T12:22:01.460Z,32.31
2017-06-24T12:23:01.507Z,32.11
2017-06-24T12:24:01.556Z,32.4
2017-06-24T12:25:01.599Z,32.4
2017-06-24T12:26:01.646Z,32.31
2017-06-24T12:27:01.998Z,32.4
2017-06-24T12:28:01.742Z,32.5
2017-06-24T12:29:01.794Z,32.6
2017-06-24T12:30:01.830Z,32.79
2017-06-24T12:31:02.189Z,32.6
2017-06-24T12:32:01.928Z,32.68
2017-06-24T12:33:01.974Z,32.89
2017-06-24T12:34:02.328Z,32.89
2017-06-24T12:35:02.069Z,33.28
2017-06-24T12:36:02.113Z,32.97
2017-06-24T12:37:02.159Z,33.46
2017-06-24T12:38:02.202Z,33.36
2017-06-24T12:39:02.559Z,33.38
2017-06-24T12:40:02.295Z,33.36
2017-06-24T12:41:02.345Z,33.18
2017-06-24T12:42:02.387Z,33.85
2017-06-24T12:43:02.435Z,33.56
2017-06-24T12:44:02.483Z,33.77
2017-06-24T12:45:02.531Z,33.77
2017-06-24T12:46:02.900Z,33.58
2017-06-24T12:47:02.625Z,33.58
2017-06-24T12:48:02.667Z,33.86
2017-06-24T12:49:02.720Z,33.86
2017-06-24T12:50:02.760Z,33.67
2017-06-24T12:51:03.117Z,33.67
2017-06-24T12:52:03.158Z,33.67
2017-06-24T12:53:02.899Z,33.86
2017-06-24T12:54:02.943Z,33.86
2017-06-24T12:55:02.989Z,33.09
2017-06-24T12:56:03.035Z,34.25
2017-06-24T12:57:03.081Z,34.14